sensor_id;sensor_type;location;lat;lon;timestamp;P1;durP1;ratioP1;P2;durP2;ratioP2
7477;SDS011;3780;42.424;25.636;2024-03-02T00:00:05;40.63;;;29.08;;
7477;SDS011;3780;42.424;25.636;2024-03-02T00:02:40;41.43;;;29.87;;
7477;SDS011;3780;42.424;25.636;2024-03-02T00:05:05;50.05;;;30.95;;
7477;SDS011;3780;42.424;25.636;2024-03-02T00:07:31;43.67;;;31.15;;
7477;SDS011;3780;42.424;25.636;2024-03-02T00:09:56;51.40;;;32.08;;
7477;SDS011;3780;42.424;25.636;2024-03-02T00:12:22;50.30;;;32.80;;
7477;SDS011;3780;42.424;25.636;2024-03-02T00:14:47;51.85;;;33.35;;
7477;SDS011;3780;42.424;25.636;2024-03-02T00:17:24;51.25;;;34.78;;
7477;SDS011;3780;42.424;25.636;2024-03-02T00:19:50;49.47;;;32.90;;
7477;SDS011;3780;42.424;25.636;2024-03-02T00:22:15;51.70;;;35.30;;
7477;SDS011;3780;42.424;25.636;2024-03-02T00:24:41;54.10;;;34.67;;
7477;SDS011;3780;42.424;25.636;2024-03-02T00:27:06;59.83;;;36.33;;
7477;SDS011;3780;42.424;25.636;2024-03-02T00:29:32;53.00;;;35.42;;
7477;SDS011;3780;42.424;25.636;2024-03-02T00:31:57;56.65;;;35.70;;
7477;SDS011;3780;42.424;25.636;2024-03-02T00:34:23;56.60;;;34.20;;
7477;SDS011;3780;42.424;25.636;2024-03-02T00:36:48;55.15;;;35.40;;
7477;SDS011;3780;42.424;25.636;2024-03-02T00:39:16;51.42;;;35.78;;
7477;SDS011;3780;42.424;25.636;2024-03-02T00:41:42;55.72;;;34.72;;
7477;SDS011;3780;42.424;25.636;2024-03-02T00:44:09;55.47;;;36.08;;
7477;SDS011;3780;42.424;25.636;2024-03-02T00:46:36;62.42;;;37.20;;
7477;SDS011;3780;42.424;25.636;2024-03-02T00:49:05;55.92;;;35.80;;
7477;SDS011;3780;42.424;25.636;2024-03-02T00:51:34;57.80;;;37.47;;
7477;SDS011;3780;42.424;25.636;2024-03-02T00:54:04;63.13;;;39.22;;
7477;SDS011;3780;42.424;25.636;2024-03-02T00:56:30;65.05;;;40.08;;
7477;SDS011;3780;42.424;25.636;2024-03-02T00:58:55;54.42;;;37.28;;
7477;SDS011;3780;42.424;25.636;2024-03-02T01:01:20;56.65;;;37.40;;
7477;SDS011;3780;42.424;25.636;2024-03-02T01:03:46;57.03;;;38.00;;
7477;SDS011;3780;42.424;25.636;2024-03-02T01:06:11;57.72;;;36.33;;
7477;SDS011;3780;42.424;25.636;2024-03-02T01:08:37;57.83;;;37.42;;
7477;SDS011;3780;42.424;25.636;2024-03-02T01:11:02;57.83;;;37.15;;
7477;SDS011;3780;42.424;25.636;2024-03-02T01:13:28;60.50;;;37.45;;
7477;SDS011;3780;42.424;25.636;2024-03-02T01:15:53;57.90;;;36.45;;
7477;SDS011;3780;42.424;25.636;2024-03-02T01:18:18;55.40;;;35.83;;
7477;SDS011;3780;42.424;25.636;2024-03-02T01:20:44;60.13;;;37.70;;
7477;SDS011;3780;42.424;25.636;2024-03-02T01:23:09;57.55;;;37.55;;
7477;SDS011;3780;42.424;25.636;2024-03-02T01:25:35;59.97;;;38.25;;
7477;SDS011;3780;42.424;25.636;2024-03-02T01:28:00;63.05;;;37.72;;
7477;SDS011;3780;42.424;25.636;2024-03-02T01:30:26;56.40;;;36.58;;
7477;SDS011;3780;42.424;25.636;2024-03-02T01:32:51;57.88;;;37.65;;
7477;SDS011;3780;42.424;25.636;2024-03-02T01:35:16;60.33;;;37.58;;
7477;SDS011;3780;42.424;25.636;2024-03-02T01:37:42;56.63;;;36.22;;
7477;SDS011;3780;42.424;25.636;2024-03-02T01:40:07;59.90;;;37.55;;
7477;SDS011;3780;42.424;25.636;2024-03-02T01:42:37;60.60;;;37.63;;
7477;SDS011;3780;42.424;25.636;2024-03-02T01:45:06;58.08;;;37.58;;
7477;SDS011;3780;42.424;25.636;2024-03-02T01:47:32;59.28;;;36.42;;
7477;SDS011;3780;42.424;25.636;2024-03-02T01:49:57;56.05;;;35.70;;
7477;SDS011;3780;42.424;25.636;2024-03-02T01:52:23;58.40;;;37.67;;
7477;SDS011;3780;42.424;25.636;2024-03-02T01:54:48;59.47;;;35.28;;
7477;SDS011;3780;42.424;25.636;2024-03-02T01:57:13;58.60;;;37.25;;
7477;SDS011;3780;42.424;25.636;2024-03-02T01:59:39;55.97;;;36.85;;
7477;SDS011;3780;42.424;25.636;2024-03-02T02:02:04;67.47;;;38.72;;
7477;SDS011;3780;42.424;25.636;2024-03-02T02:04:29;55.45;;;36.30;;
7477;SDS011;3780;42.424;25.636;2024-03-02T02:06:55;57.92;;;37.13;;
7477;SDS011;3780;42.424;25.636;2024-03-02T02:09:21;58.17;;;35.80;;
7477;SDS011;3780;42.424;25.636;2024-03-02T02:11:46;58.83;;;36.15;;
7477;SDS011;3780;42.424;25.636;2024-03-02T02:14:12;53.92;;;35.30;;
7477;SDS011;3780;42.424;25.636;2024-03-02T02:16:37;51.90;;;35.28;;
7477;SDS011;3780;42.424;25.636;2024-03-02T02:19:02;53.33;;;35.15;;
7477;SDS011;3780;42.424;25.636;2024-03-02T02:21:28;55.92;;;35.47;;
7477;SDS011;3780;42.424;25.636;2024-03-02T02:23:53;52.45;;;33.13;;
7477;SDS011;3780;42.424;25.636;2024-03-02T02:26:18;58.03;;;35.40;;
7477;SDS011;3780;42.424;25.636;2024-03-02T02:28:44;54.72;;;35.92;;
7477;SDS011;3780;42.424;25.636;2024-03-02T02:31:15;56.58;;;36.15;;
7477;SDS011;3780;42.424;25.636;2024-03-02T02:33:40;56.83;;;35.80;;
7477;SDS011;3780;42.424;25.636;2024-03-02T02:36:06;56.58;;;35.88;;
7477;SDS011;3780;42.424;25.636;2024-03-02T02:38:35;53.65;;;33.72;;
7477;SDS011;3780;42.424;25.636;2024-03-02T02:41:01;55.03;;;34.28;;
7477;SDS011;3780;42.424;25.636;2024-03-02T02:43:27;54.03;;;34.55;;
7477;SDS011;3780;42.424;25.636;2024-03-02T02:45:52;49.25;;;32.08;;
7477;SDS011;3780;42.424;25.636;2024-03-02T02:48:17;52.55;;;33.60;;
7477;SDS011;3780;42.424;25.636;2024-03-02T02:50:43;50.47;;;32.15;;
7477;SDS011;3780;42.424;25.636;2024-03-02T02:53:08;50.40;;;32.90;;
7477;SDS011;3780;42.424;25.636;2024-03-02T02:55:35;53.25;;;32.50;;
7477;SDS011;3780;42.424;25.636;2024-03-02T02:58:05;50.15;;;30.80;;
7477;SDS011;3780;42.424;25.636;2024-03-02T03:00:30;52.38;;;30.77;;
7477;SDS011;3780;42.424;25.636;2024-03-02T03:02:55;51.00;;;31.75;;
7477;SDS011;3780;42.424;25.636;2024-03-02T03:05:21;51.70;;;29.75;;
7477;SDS011;3780;42.424;25.636;2024-03-02T03:07:46;57.30;;;31.40;;
7477;SDS011;3780;42.424;25.636;2024-03-02T03:10:13;52.03;;;31.38;;
7477;SDS011;3780;42.424;25.636;2024-03-02T03:12:38;50.35;;;31.63;;
7477;SDS011;3780;42.424;25.636;2024-03-02T03:15:06;49.00;;;30.13;;
7477;SDS011;3780;42.424;25.636;2024-03-02T03:17:32;46.78;;;30.92;;
7477;SDS011;3780;42.424;25.636;2024-03-02T03:19:57;48.03;;;30.05;;
7477;SDS011;3780;42.424;25.636;2024-03-02T03:22:22;48.83;;;30.10;;
7477;SDS011;3780;42.424;25.636;2024-03-02T03:24:48;50.97;;;30.55;;
7477;SDS011;3780;42.424;25.636;2024-03-02T03:27:13;52.55;;;31.27;;
7477;SDS011;3780;42.424;25.636;2024-03-02T03:29:38;48.60;;;29.63;;
7477;SDS011;3780;42.424;25.636;2024-03-02T03:32:04;50.83;;;29.60;;
7477;SDS011;3780;42.424;25.636;2024-03-02T03:34:33;48.38;;;28.23;;
7477;SDS011;3780;42.424;25.636;2024-03-02T03:36:59;49.00;;;29.10;;
7477;SDS011;3780;42.424;25.636;2024-03-02T03:39:24;52.63;;;30.25;;
7477;SDS011;3780;42.424;25.636;2024-03-02T03:41:49;52.30;;;30.30;;
7477;SDS011;3780;42.424;25.636;2024-03-02T03:44:14;47.40;;;29.05;;
7477;SDS011;3780;42.424;25.636;2024-03-02T03:46:40;46.92;;;30.15;;
7477;SDS011;3780;42.424;25.636;2024-03-02T03:49:05;46.20;;;29.52;;
7477;SDS011;3780;42.424;25.636;2024-03-02T03:51:30;48.53;;;30.08;;
7477;SDS011;3780;42.424;25.636;2024-03-02T03:53:56;50.38;;;30.48;;
7477;SDS011;3780;42.424;25.636;2024-03-02T03:56:21;54.78;;;31.35;;
7477;SDS011;3780;42.424;25.636;2024-03-02T03:58:46;52.03;;;30.98;;
7477;SDS011;3780;42.424;25.636;2024-03-02T04:01:12;49.25;;;31.42;;
7477;SDS011;3780;42.424;25.636;2024-03-02T04:03:38;51.85;;;31.58;;
7477;SDS011;3780;42.424;25.636;2024-03-02T04:06:03;55.80;;;31.65;;
7477;SDS011;3780;42.424;25.636;2024-03-02T04:08:28;53.75;;;31.73;;
7477;SDS011;3780;42.424;25.636;2024-03-02T04:10:54;55.20;;;29.77;;
7477;SDS011;3780;42.424;25.636;2024-03-02T04:13:19;48.95;;;29.20;;
7477;SDS011;3780;42.424;25.636;2024-03-02T04:15:44;47.58;;;27.55;;
7477;SDS011;3780;42.424;25.636;2024-03-02T04:18:09;47.95;;;27.40;;
7477;SDS011;3780;42.424;25.636;2024-03-02T04:20:35;45.50;;;28.20;;
7477;SDS011;3780;42.424;25.636;2024-03-02T04:23:00;52.88;;;28.27;;
7477;SDS011;3780;42.424;25.636;2024-03-02T04:25:25;41.40;;;24.80;;
7477;SDS011;3780;42.424;25.636;2024-03-02T04:27:51;38.17;;;23.60;;
7477;SDS011;3780;42.424;25.636;2024-03-02T04:30:16;35.58;;;23.70;;
7477;SDS011;3780;42.424;25.636;2024-03-02T04:32:41;36.78;;;22.38;;
7477;SDS011;3780;42.424;25.636;2024-03-02T04:35:11;35.60;;;22.23;;
7477;SDS011;3780;42.424;25.636;2024-03-02T04:37:37;34.05;;;21.33;;
7477;SDS011;3780;42.424;25.636;2024-03-02T04:40:03;40.10;;;21.33;;
7477;SDS011;3780;42.424;25.636;2024-03-02T04:42:28;34.63;;;22.23;;
7477;SDS011;3780;42.424;25.636;2024-03-02T04:44:53;41.92;;;19.77;;
7477;SDS011;3780;42.424;25.636;2024-03-02T04:47:18;39.50;;;22.15;;
7477;SDS011;3780;42.424;25.636;2024-03-02T04:49:44;35.67;;;20.65;;
7477;SDS011;3780;42.424;25.636;2024-03-02T04:52:09;40.03;;;21.52;;
7477;SDS011;3780;42.424;25.636;2024-03-02T04:54:35;34.70;;;20.05;;
7477;SDS011;3780;42.424;25.636;2024-03-02T04:57:20;35.78;;;20.52;;
7477;SDS011;3780;42.424;25.636;2024-03-02T04:59:45;37.10;;;19.98;;
7477;SDS011;3780;42.424;25.636;2024-03-02T05:02:10;33.47;;;20.67;;
7477;SDS011;3780;42.424;25.636;2024-03-02T05:04:39;35.17;;;21.55;;
7477;SDS011;3780;42.424;25.636;2024-03-02T05:07:04;33.80;;;20.35;;
7477;SDS011;3780;42.424;25.636;2024-03-02T05:09:29;37.67;;;20.90;;
7477;SDS011;3780;42.424;25.636;2024-03-02T05:11:55;34.60;;;19.58;;
7477;SDS011;3780;42.424;25.636;2024-03-02T05:14:53;37.20;;;20.10;;
7477;SDS011;3780;42.424;25.636;2024-03-02T05:17:18;36.47;;;19.40;;
7477;SDS011;3780;42.424;25.636;2024-03-02T05:19:43;31.08;;;20.00;;
7477;SDS011;3780;42.424;25.636;2024-03-02T05:22:08;33.25;;;20.13;;
7477;SDS011;3780;42.424;25.636;2024-03-02T05:24:34;33.63;;;20.08;;
7477;SDS011;3780;42.424;25.636;2024-03-02T05:26:59;34.58;;;19.90;;
7477;SDS011;3780;42.424;25.636;2024-03-02T05:29:24;33.55;;;19.58;;
7477;SDS011;3780;42.424;25.636;2024-03-02T05:31:50;32.63;;;20.52;;
7477;SDS011;3780;42.424;25.636;2024-03-02T05:34:15;30.42;;;20.75;;
7477;SDS011;3780;42.424;25.636;2024-03-02T05:36:40;32.40;;;19.58;;
7477;SDS011;3780;42.424;25.636;2024-03-02T05:39:06;28.75;;;20.13;;
7477;SDS011;3780;42.424;25.636;2024-03-02T05:41:34;28.30;;;18.92;;
7477;SDS011;3780;42.424;25.636;2024-03-02T05:43:59;31.25;;;20.08;;
7477;SDS011;3780;42.424;25.636;2024-03-02T05:46:24;29.65;;;19.83;;
7477;SDS011;3780;42.424;25.636;2024-03-02T05:48:50;33.97;;;21.33;;
7477;SDS011;3780;42.424;25.636;2024-03-02T05:51:15;31.75;;;22.95;;
7477;SDS011;3780;42.424;25.636;2024-03-02T05:53:40;38.35;;;23.95;;
7477;SDS011;3780;42.424;25.636;2024-03-02T05:56:06;37.33;;;23.05;;
7477;SDS011;3780;42.424;25.636;2024-03-02T05:58:32;35.40;;;22.20;;
7477;SDS011;3780;42.424;25.636;2024-03-02T06:01:15;34.78;;;22.33;;
7477;SDS011;3780;42.424;25.636;2024-03-02T06:03:43;38.00;;;22.88;;
7477;SDS011;3780;42.424;25.636;2024-03-02T06:06:08;32.90;;;22.60;;
7477;SDS011;3780;42.424;25.636;2024-03-02T06:08:33;37.67;;;21.35;;
7477;SDS011;3780;42.424;25.636;2024-03-02T06:11:00;34.80;;;21.60;;
7477;SDS011;3780;42.424;25.636;2024-03-02T06:13:25;35.20;;;22.90;;
7477;SDS011;3780;42.424;25.636;2024-03-02T06:15:51;34.22;;;21.33;;
7477;SDS011;3780;42.424;25.636;2024-03-02T06:18:16;30.20;;;19.25;;
7477;SDS011;3780;42.424;25.636;2024-03-02T06:20:42;31.67;;;19.30;;
7477;SDS011;3780;42.424;25.636;2024-03-02T06:23:07;30.50;;;19.52;;
7477;SDS011;3780;42.424;25.636;2024-03-02T06:25:33;34.88;;;19.92;;
7477;SDS011;3780;42.424;25.636;2024-03-02T06:27:58;29.98;;;20.45;;
7477;SDS011;3780;42.424;25.636;2024-03-02T06:30:24;36.92;;;22.27;;
7477;SDS011;3780;42.424;25.636;2024-03-02T06:32:49;29.30;;;19.50;;
7477;SDS011;3780;42.424;25.636;2024-03-02T06:35:14;30.10;;;19.10;;
7477;SDS011;3780;42.424;25.636;2024-03-02T06:37:40;41.35;;;23.58;;
7477;SDS011;3780;42.424;25.636;2024-03-02T06:40:06;34.33;;;21.15;;
7477;SDS011;3780;42.424;25.636;2024-03-02T06:42:32;35.40;;;20.70;;
7477;SDS011;3780;42.424;25.636;2024-03-02T06:44:58;27.73;;;19.92;;
7477;SDS011;3780;42.424;25.636;2024-03-02T06:47:24;43.67;;;26.50;;
7477;SDS011;3780;42.424;25.636;2024-03-02T06:49:49;36.10;;;21.58;;
7477;SDS011;3780;42.424;25.636;2024-03-02T06:52:14;45.03;;;27.17;;
7477;SDS011;3780;42.424;25.636;2024-03-02T06:54:39;30.83;;;21.38;;
7477;SDS011;3780;42.424;25.636;2024-03-02T06:57:05;29.27;;;21.08;;
7477;SDS011;3780;42.424;25.636;2024-03-02T06:59:30;28.55;;;17.98;;
7477;SDS011;3780;42.424;25.636;2024-03-02T07:01:55;24.92;;;17.98;;
7477;SDS011;3780;42.424;25.636;2024-03-02T07:04:21;32.08;;;19.70;;
7477;SDS011;3780;42.424;25.636;2024-03-02T07:06:47;33.28;;;20.55;;
7477;SDS011;3780;42.424;25.636;2024-03-02T07:09:12;31.42;;;19.48;;
7477;SDS011;3780;42.424;25.636;2024-03-02T07:11:37;34.30;;;20.83;;
7477;SDS011;3780;42.424;25.636;2024-03-02T07:14:03;32.67;;;19.85;;
7477;SDS011;3780;42.424;25.636;2024-03-02T07:16:28;35.15;;;21.05;;
7477;SDS011;3780;42.424;25.636;2024-03-02T07:18:55;33.85;;;22.67;;
7477;SDS011;3780;42.424;25.636;2024-03-02T07:21:21;39.28;;;22.30;;
7477;SDS011;3780;42.424;25.636;2024-03-02T07:23:49;30.20;;;20.15;;
7477;SDS011;3780;42.424;25.636;2024-03-02T07:26:15;32.70;;;21.08;;
7477;SDS011;3780;42.424;25.636;2024-03-02T07:28:41;35.50;;;21.05;;
7477;SDS011;3780;42.424;25.636;2024-03-02T07:31:06;34.00;;;21.60;;
7477;SDS011;3780;42.424;25.636;2024-03-02T07:33:32;33.78;;;21.95;;
7477;SDS011;3780;42.424;25.636;2024-03-02T07:35:57;35.63;;;23.13;;
7477;SDS011;3780;42.424;25.636;2024-03-02T07:38:24;46.90;;;24.05;;
7477;SDS011;3780;42.424;25.636;2024-03-02T07:40:50;37.53;;;22.58;;
7477;SDS011;3780;42.424;25.636;2024-03-02T07:43:18;35.30;;;22.98;;
7477;SDS011;3780;42.424;25.636;2024-03-02T07:45:44;37.17;;;24.52;;
7477;SDS011;3780;42.424;25.636;2024-03-02T07:48:09;40.03;;;28.55;;
7477;SDS011;3780;42.424;25.636;2024-03-02T07:50:35;43.13;;;30.75;;
7477;SDS011;3780;42.424;25.636;2024-03-02T07:53:01;46.15;;;31.20;;
7477;SDS011;3780;42.424;25.636;2024-03-02T07:55:26;49.42;;;37.30;;
7477;SDS011;3780;42.424;25.636;2024-03-02T07:57:51;43.35;;;32.15;;
7477;SDS011;3780;42.424;25.636;2024-03-02T08:00:17;42.63;;;26.98;;
7477;SDS011;3780;42.424;25.636;2024-03-02T08:02:42;39.42;;;27.17;;
7477;SDS011;3780;42.424;25.636;2024-03-02T08:05:07;45.15;;;30.25;;
7477;SDS011;3780;42.424;25.636;2024-03-02T08:07:33;42.88;;;27.60;;
7477;SDS011;3780;42.424;25.636;2024-03-02T08:09:58;39.92;;;27.20;;
7477;SDS011;3780;42.424;25.636;2024-03-02T08:12:24;42.50;;;29.10;;
7477;SDS011;3780;42.424;25.636;2024-03-02T08:14:49;47.33;;;29.02;;
7477;SDS011;3780;42.424;25.636;2024-03-02T08:17:14;51.60;;;33.83;;
7477;SDS011;3780;42.424;25.636;2024-03-02T08:19:39;44.35;;;28.73;;
7477;SDS011;3780;42.424;25.636;2024-03-02T08:22:05;49.33;;;34.58;;
7477;SDS011;3780;42.424;25.636;2024-03-02T08:24:30;43.90;;;27.52;;
7477;SDS011;3780;42.424;25.636;2024-03-02T08:26:56;36.85;;;26.30;;
7477;SDS011;3780;42.424;25.636;2024-03-02T08:29:21;38.15;;;26.65;;
7477;SDS011;3780;42.424;25.636;2024-03-02T08:31:46;46.25;;;27.75;;
7477;SDS011;3780;42.424;25.636;2024-03-02T08:34:12;29.08;;;20.92;;
7477;SDS011;3780;42.424;25.636;2024-03-02T08:36:37;34.28;;;23.55;;
7477;SDS011;3780;42.424;25.636;2024-03-02T08:39:03;45.20;;;26.85;;
7477;SDS011;3780;42.424;25.636;2024-03-02T08:41:28;40.22;;;24.30;;
7477;SDS011;3780;42.424;25.636;2024-03-02T08:43:53;35.65;;;23.88;;
7477;SDS011;3780;42.424;25.636;2024-03-02T08:46:19;44.28;;;25.02;;
7477;SDS011;3780;42.424;25.636;2024-03-02T08:48:44;35.50;;;23.73;;
7477;SDS011;3780;42.424;25.636;2024-03-02T08:51:10;32.80;;;23.45;;
7477;SDS011;3780;42.424;25.636;2024-03-02T08:53:35;29.70;;;22.17;;
7477;SDS011;3780;42.424;25.636;2024-03-02T08:56:01;34.30;;;21.67;;
7477;SDS011;3780;42.424;25.636;2024-03-02T08:58:26;28.45;;;21.05;;
7477;SDS011;3780;42.424;25.636;2024-03-02T09:00:52;33.88;;;21.65;;
7477;SDS011;3780;42.424;25.636;2024-03-02T09:03:17;37.75;;;23.50;;
7477;SDS011;3780;42.424;25.636;2024-03-02T09:05:42;30.98;;;21.85;;
7477;SDS011;3780;42.424;25.636;2024-03-02T09:08:08;31.67;;;20.15;;
7477;SDS011;3780;42.424;25.636;2024-03-02T09:10:33;31.75;;;19.98;;
7477;SDS011;3780;42.424;25.636;2024-03-02T09:12:58;33.38;;;22.10;;
7477;SDS011;3780;42.424;25.636;2024-03-02T09:15:24;30.90;;;21.40;;
7477;SDS011;3780;42.424;25.636;2024-03-02T09:17:50;31.33;;;20.70;;
7477;SDS011;3780;42.424;25.636;2024-03-02T09:20:15;26.95;;;19.75;;
7477;SDS011;3780;42.424;25.636;2024-03-02T09:22:41;35.72;;;20.95;;
7477;SDS011;3780;42.424;25.636;2024-03-02T09:25:07;29.35;;;20.15;;
7477;SDS011;3780;42.424;25.636;2024-03-02T09:27:36;31.23;;;22.08;;
7477;SDS011;3780;42.424;25.636;2024-03-02T09:30:01;28.88;;;20.52;;
7477;SDS011;3780;42.424;25.636;2024-03-02T09:32:26;27.92;;;21.00;;
7477;SDS011;3780;42.424;25.636;2024-03-02T09:34:51;32.63;;;20.90;;
7477;SDS011;3780;42.424;25.636;2024-03-02T09:37:18;30.77;;;21.17;;
7477;SDS011;3780;42.424;25.636;2024-03-02T09:39:43;28.95;;;20.80;;
7477;SDS011;3780;42.424;25.636;2024-03-02T09:42:10;30.40;;;20.02;;
7477;SDS011;3780;42.424;25.636;2024-03-02T09:44:35;30.42;;;22.17;;
7477;SDS011;3780;42.424;25.636;2024-03-02T09:47:00;32.83;;;22.25;;
7477;SDS011;3780;42.424;25.636;2024-03-02T09:49:26;26.25;;;20.00;;
7477;SDS011;3780;42.424;25.636;2024-03-02T09:51:51;30.85;;;20.67;;
7477;SDS011;3780;42.424;25.636;2024-03-02T09:54:17;30.52;;;20.58;;
7477;SDS011;3780;42.424;25.636;2024-03-02T09:56:43;31.67;;;21.17;;
7477;SDS011;3780;42.424;25.636;2024-03-02T09:59:08;25.52;;;20.55;;
7477;SDS011;3780;42.424;25.636;2024-03-02T10:01:34;30.30;;;21.65;;
7477;SDS011;3780;42.424;25.636;2024-03-02T10:03:59;29.55;;;20.80;;
7477;SDS011;3780;42.424;25.636;2024-03-02T10:06:25;22.42;;;17.60;;
7477;SDS011;3780;42.424;25.636;2024-03-02T10:08:51;26.67;;;18.88;;
7477;SDS011;3780;42.424;25.636;2024-03-02T10:11:32;26.90;;;18.65;;
7477;SDS011;3780;42.424;25.636;2024-03-02T10:14:11;30.67;;;18.48;;
7477;SDS011;3780;42.424;25.636;2024-03-02T10:16:38;27.85;;;18.88;;
7477;SDS011;3780;42.424;25.636;2024-03-02T10:19:16;26.15;;;17.60;;
7477;SDS011;3780;42.424;25.636;2024-03-02T10:21:43;28.48;;;18.30;;
7477;SDS011;3780;42.424;25.636;2024-03-02T10:24:08;24.88;;;17.15;;
7477;SDS011;3780;42.424;25.636;2024-03-02T10:26:34;25.33;;;17.25;;
7477;SDS011;3780;42.424;25.636;2024-03-02T10:28:59;30.42;;;17.60;;
7477;SDS011;3780;42.424;25.636;2024-03-02T10:31:25;28.08;;;18.27;;
7477;SDS011;3780;42.424;25.636;2024-03-02T10:33:53;25.40;;;16.73;;
7477;SDS011;3780;42.424;25.636;2024-03-02T10:36:19;24.80;;;16.73;;
7477;SDS011;3780;42.424;25.636;2024-03-02T10:38:44;31.27;;;17.85;;
7477;SDS011;3780;42.424;25.636;2024-03-02T10:41:13;27.77;;;17.10;;
7477;SDS011;3780;42.424;25.636;2024-03-02T10:43:41;28.25;;;18.00;;
7477;SDS011;3780;42.424;25.636;2024-03-02T10:46:07;24.58;;;17.67;;
7477;SDS011;3780;42.424;25.636;2024-03-02T10:48:32;28.20;;;17.30;;
7477;SDS011;3780;42.424;25.636;2024-03-02T10:50:58;26.70;;;18.42;;
7477;SDS011;3780;42.424;25.636;2024-03-02T10:53:26;27.70;;;17.92;;
7477;SDS011;3780;42.424;25.636;2024-03-02T10:55:52;28.88;;;18.58;;
7477;SDS011;3780;42.424;25.636;2024-03-02T10:58:22;27.10;;;18.33;;
7477;SDS011;3780;42.424;25.636;2024-03-02T11:00:49;24.33;;;16.90;;
7477;SDS011;3780;42.424;25.636;2024-03-02T11:03:15;32.28;;;18.50;;
7477;SDS011;3780;42.424;25.636;2024-03-02T11:05:43;27.65;;;18.23;;
7477;SDS011;3780;42.424;25.636;2024-03-02T11:08:11;29.23;;;17.42;;
7477;SDS011;3780;42.424;25.636;2024-03-02T11:10:39;24.88;;;17.98;;
7477;SDS011;3780;42.424;25.636;2024-03-02T11:13:09;25.02;;;16.80;;
7477;SDS011;3780;42.424;25.636;2024-03-02T11:15:34;28.65;;;17.75;;
7477;SDS011;3780;42.424;25.636;2024-03-02T11:18:01;27.02;;;17.98;;
7477;SDS011;3780;42.424;25.636;2024-03-02T11:20:29;27.50;;;17.95;;
7477;SDS011;3780;42.424;25.636;2024-03-02T11:22:54;28.05;;;18.50;;
7477;SDS011;3780;42.424;25.636;2024-03-02T11:25:23;30.90;;;18.10;;
7477;SDS011;3780;42.424;25.636;2024-03-02T11:33:01;25.85;;;17.75;;
7477;SDS011;3780;42.424;25.636;2024-03-02T11:38:02;24.67;;;17.40;;
7477;SDS011;3780;42.424;25.636;2024-03-02T11:40:28;26.67;;;17.55;;
7477;SDS011;3780;42.424;25.636;2024-03-02T11:42:54;28.52;;;18.00;;
7477;SDS011;3780;42.424;25.636;2024-03-02T11:45:26;27.30;;;18.35;;
7477;SDS011;3780;42.424;25.636;2024-03-02T11:47:53;27.67;;;18.65;;
7477;SDS011;3780;42.424;25.636;2024-03-02T11:53:08;26.30;;;19.08;;
7477;SDS011;3780;42.424;25.636;2024-03-02T11:55:36;30.15;;;19.63;;
7477;SDS011;3780;42.424;25.636;2024-03-02T11:58:03;26.42;;;19.65;;
7477;SDS011;3780;42.424;25.636;2024-03-02T12:00:28;27.85;;;20.30;;
7477;SDS011;3780;42.424;25.636;2024-03-02T12:03:04;27.00;;;19.35;;
7477;SDS011;3780;42.424;25.636;2024-03-02T12:05:29;33.35;;;19.27;;
7477;SDS011;3780;42.424;25.636;2024-03-02T12:07:58;26.25;;;20.10;;
7477;SDS011;3780;42.424;25.636;2024-03-02T12:10:24;26.85;;;18.90;;
7477;SDS011;3780;42.424;25.636;2024-03-02T12:13:02;25.75;;;19.02;;
7477;SDS011;3780;42.424;25.636;2024-03-02T12:15:34;27.73;;;20.05;;
7477;SDS011;3780;42.424;25.636;2024-03-02T12:18:02;35.17;;;21.20;;
7477;SDS011;3780;42.424;25.636;2024-03-02T12:20:28;31.38;;;21.27;;
7477;SDS011;3780;42.424;25.636;2024-03-02T12:22:54;34.50;;;20.58;;
7477;SDS011;3780;42.424;25.636;2024-03-02T12:25:22;36.22;;;24.92;;
7477;SDS011;3780;42.424;25.636;2024-03-02T12:27:49;32.85;;;21.67;;
7477;SDS011;3780;42.424;25.636;2024-03-02T12:30:16;30.88;;;21.23;;
7477;SDS011;3780;42.424;25.636;2024-03-02T12:32:41;30.75;;;21.00;;
7477;SDS011;3780;42.424;25.636;2024-03-02T12:35:06;30.90;;;20.88;;
7477;SDS011;3780;42.424;25.636;2024-03-02T12:37:32;32.10;;;20.70;;
7477;SDS011;3780;42.424;25.636;2024-03-02T12:39:57;33.00;;;23.60;;
7477;SDS011;3780;42.424;25.636;2024-03-02T12:42:23;31.40;;;20.85;;
7477;SDS011;3780;42.424;25.636;2024-03-02T12:44:51;30.05;;;21.88;;
7477;SDS011;3780;42.424;25.636;2024-03-02T12:47:19;34.05;;;22.00;;
7477;SDS011;3780;42.424;25.636;2024-03-02T12:49:44;39.63;;;21.95;;
7477;SDS011;3780;42.424;25.636;2024-03-02T12:52:11;32.85;;;21.40;;
7477;SDS011;3780;42.424;25.636;2024-03-02T12:54:37;32.70;;;23.52;;
7477;SDS011;3780;42.424;25.636;2024-03-02T12:57:03;35.10;;;24.23;;
7477;SDS011;3780;42.424;25.636;2024-03-02T12:59:28;33.92;;;21.73;;
7477;SDS011;3780;42.424;25.636;2024-03-02T13:01:53;29.50;;;20.48;;
7477;SDS011;3780;42.424;25.636;2024-03-02T13:04:25;29.73;;;21.50;;
7477;SDS011;3780;42.424;25.636;2024-03-02T13:06:51;30.40;;;21.77;;
7477;SDS011;3780;42.424;25.636;2024-03-02T13:09:17;33.40;;;22.92;;
7477;SDS011;3780;42.424;25.636;2024-03-02T13:11:42;30.25;;;21.40;;
7477;SDS011;3780;42.424;25.636;2024-03-02T13:14:08;35.03;;;22.95;;
7477;SDS011;3780;42.424;25.636;2024-03-02T13:16:38;40.60;;;23.75;;
7477;SDS011;3780;42.424;25.636;2024-03-02T13:19:04;37.50;;;23.10;;
7477;SDS011;3780;42.424;25.636;2024-03-02T13:21:29;36.92;;;22.92;;
7477;SDS011;3780;42.424;25.636;2024-03-02T13:23:54;37.55;;;23.63;;
7477;SDS011;3780;42.424;25.636;2024-03-02T13:26:19;31.85;;;22.85;;
7477;SDS011;3780;42.424;25.636;2024-03-02T13:28:45;34.80;;;24.77;;
7477;SDS011;3780;42.424;25.636;2024-03-02T13:31:10;32.33;;;22.40;;
7477;SDS011;3780;42.424;25.636;2024-03-02T13:33:36;32.13;;;22.30;;
7477;SDS011;3780;42.424;25.636;2024-03-02T13:36:02;33.53;;;23.40;;
7477;SDS011;3780;42.424;25.636;2024-03-02T13:38:27;46.50;;;30.80;;
7477;SDS011;3780;42.424;25.636;2024-03-02T13:40:53;60.70;;;49.03;;
7477;SDS011;3780;42.424;25.636;2024-03-02T13:43:18;39.28;;;31.60;;
7477;SDS011;3780;42.424;25.636;2024-03-02T13:45:44;36.58;;;24.80;;
7477;SDS011;3780;42.424;25.636;2024-03-02T13:48:10;38.50;;;24.30;;
7477;SDS011;3780;42.424;25.636;2024-03-02T13:50:35;32.70;;;22.33;;
7477;SDS011;3780;42.424;25.636;2024-03-02T13:53:00;30.63;;;23.88;;
7477;SDS011;3780;42.424;25.636;2024-03-02T13:55:26;36.17;;;24.20;;
7477;SDS011;3780;42.424;25.636;2024-03-02T13:57:51;32.42;;;24.35;;
7477;SDS011;3780;42.424;25.636;2024-03-02T14:00:17;34.15;;;25.65;;
7477;SDS011;3780;42.424;25.636;2024-03-02T14:02:42;41.58;;;31.60;;
7477;SDS011;3780;42.424;25.636;2024-03-02T14:05:08;35.20;;;25.98;;
7477;SDS011;3780;42.424;25.636;2024-03-02T14:07:39;51.75;;;41.67;;
7477;SDS011;3780;42.424;25.636;2024-03-02T14:10:05;49.95;;;41.42;;
7477;SDS011;3780;42.424;25.636;2024-03-02T14:12:30;48.05;;;35.75;;
7477;SDS011;3780;42.424;25.636;2024-03-02T14:14:56;50.50;;;36.30;;
7477;SDS011;3780;42.424;25.636;2024-03-02T14:17:24;52.30;;;36.83;;
7477;SDS011;3780;42.424;25.636;2024-03-02T14:19:49;50.58;;;36.85;;
7477;SDS011;3780;42.424;25.636;2024-03-02T14:22:14;43.80;;;33.63;;
7477;SDS011;3780;42.424;25.636;2024-03-02T14:24:42;41.90;;;29.40;;
7477;SDS011;3780;42.424;25.636;2024-03-02T14:27:08;36.08;;;26.10;;
7477;SDS011;3780;42.424;25.636;2024-03-02T14:29:33;39.22;;;27.38;;
7477;SDS011;3780;42.424;25.636;2024-03-02T14:32:01;39.83;;;28.58;;
7477;SDS011;3780;42.424;25.636;2024-03-02T14:34:27;36.05;;;25.73;;
7477;SDS011;3780;42.424;25.636;2024-03-02T14:36:52;39.75;;;29.80;;